Aérodrome :
LOGIN :

S'inscrire | Disclaimer

   EN    FR    IT 

 










Légende :    VFR   VFR Marginal   IFR   IFR Intensif   IFR Très Intensif
Visi : 
Plafond : 
>= 8 km
>= 3000ft
5 à 8 km
1000 à 3000 ft
1500m à 5 km
500 à 1000 ft
800 à 1500m
200 à 500 ft
< 800m
< 200 ft
Symboles :   Orages  Brouillard  Fortes neiges  Fortes précipitations  Vent > 20 kt
SIGMETs :   Divers  Orages  Givrage  Turbulence  Onde Orograph.  Cendres Volcan.






- Altitude de l'aérodrome : 256 ft
- Code IATA : KUN


EYKA - Kaunas

DERNIER METAR :
  • 222250Z 13013KT CAVOK M02/M12 Q1027 R08/090095

METARs EXPIRÉS :
  • 222220Z 13013KT CAVOK M02/M12 Q1027 R08/090095
  • 222150Z 13014KT CAVOK M01/M11 Q1027 R08/090095
  • 222120Z 14011KT CAVOK M01/M11 Q1027 R08/090095
  • 222050Z 14011KT CAVOK M01/M11 Q1027 R08/090095
  • 222020Z 13012KT CAVOK M02/M10 Q1027 R08/090095

TAF TAF EYKA
Valide du 22 à 18h jusqu'au 23 à 18h UTC


221700Z 2218/2318 14014KT 9000 NSC



MET'MAP, la Météo Aéronautique d'un coup d'oeil ! - Copyright ORBIFLY Décembre 2007 - Disclaimer

ORBIFLY MET'MAP TEAM :

Programmation & Développement : Alexandra Zaïnal
Conception & Développement : Baudouin d'Aumeries
Co-Programmation & Développement : Marc-Olivier Méhu
Soutien technique & logistique : Manuel Goepfert

Contact : metmap@orbifly.com




SOURCES & CREDITS :

   NOAA